createdAt,value
2023-02-17T00:01:37.840Z,87.88
2023-02-17T00:04:11.281Z,87.59
2023-02-17T00:06:43.891Z,87.71
2023-02-17T00:09:16.854Z,87.45
2023-02-17T00:11:50.369Z,87.09
2023-02-17T00:14:22.857Z,87.47
2023-02-17T00:16:55.440Z,86.25
2023-02-17T00:19:27.978Z,86.47
2023-02-17T00:22:02.591Z,86.72
2023-02-17T00:24:39.540Z,86.44
2023-02-17T00:27:12.102Z,85.88
2023-02-17T00:29:44.674Z,86.30
2023-02-17T00:32:17.257Z,86.17
2023-02-17T00:34:52.348Z,85.81
2023-02-17T00:37:25.992Z,85.58
2023-02-17T00:39:58.493Z,85.18
2023-02-17T00:42:30.986Z,85.64
2023-02-17T00:45:04.497Z,85.28
2023-02-17T00:47:37.044Z,84.74
2023-02-17T00:50:10.053Z,84.45
2023-02-17T00:52:42.548Z,84.60
2023-02-17T00:55:15.157Z,83.31
2023-02-17T00:57:47.752Z,83.79
2023-02-17T01:00:20.465Z,83.30
2023-02-17T01:02:53.121Z,82.88
2023-02-17T01:05:25.685Z,83.36
2023-02-17T01:07:58.389Z,82.79
2023-02-17T01:10:30.979Z,82.87
2023-02-17T01:13:03.814Z,82.67
2023-02-17T01:15:51.626Z,82.77
2023-02-17T01:18:24.724Z,83.00
2023-02-17T01:20:57.200Z,82.60
2023-02-17T01:23:29.728Z,82.50
2023-02-17T01:26:02.275Z,82.41
2023-02-17T01:28:35.989Z,82.59
2023-02-17T01:31:10.743Z,82.31
2023-02-17T01:33:43.836Z,82.26
2023-02-17T01:36:18.826Z,82.07
2023-02-17T01:38:51.658Z,82.13
2023-02-17T01:41:27.870Z,81.35
2023-02-17T01:44:33.361Z,81.27
2023-02-17T01:47:05.896Z,81.41
2023-02-17T01:49:41.669Z,81.28
2023-02-17T01:52:25.073Z,81.42
2023-02-17T01:55:09.949Z,80.84
2023-02-17T01:57:46.088Z,81.28
2023-02-17T02:00:21.653Z,80.99
2023-02-17T02:02:54.962Z,80.76
2023-02-17T02:05:28.524Z,81.41
2023-02-17T02:08:01.103Z,81.17
2023-02-17T02:10:34.131Z,80.78
2023-02-17T02:13:08.290Z,80.71
2023-02-17T02:15:57.811Z,80.42
2023-02-17T02:18:54.145Z,81.36
2023-02-17T02:21:51.332Z,81.57
2023-02-17T02:24:28.006Z,81.24
2023-02-17T02:27:45.830Z,81.56
2023-02-17T02:30:49.675Z,81.13
2023-02-17T02:33:47.300Z,81.01
2023-02-17T02:36:31.144Z,81.24
2023-02-17T02:39:37.882Z,80.69
2023-02-17T02:42:16.995Z,80.84
2023-02-17T02:44:49.713Z,80.52
2023-02-17T02:47:54.570Z,80.97
2023-02-17T02:50:58.994Z,80.75
2023-02-17T02:54:19.284Z,80.51
2023-02-17T02:57:23.886Z,80.99
2023-02-17T03:00:30.388Z,80.38
2023-02-17T03:03:16.640Z,80.43
2023-02-17T03:06:27.514Z,80.83
2023-02-17T03:09:09.523Z,81.07
2023-02-17T03:11:42.663Z,80.80
2023-02-17T03:14:20.130Z,81.39
2023-02-17T03:16:53.218Z,81.21
2023-02-17T03:19:26.399Z,81.77
2023-02-17T03:22:16.552Z,81.72
2023-02-17T03:24:49.509Z,81.69
2023-02-17T03:27:22.077Z,81.58
2023-02-17T03:29:54.892Z,81.96
2023-02-17T03:32:27.766Z,81.25
2023-02-17T03:35:00.338Z,81.68
2023-02-17T03:37:33.106Z,81.56
2023-02-17T03:40:08.339Z,81.72
2023-02-17T03:42:40.908Z,81.32
2023-02-17T03:45:13.510Z,81.05
2023-02-17T03:47:46.158Z,80.98
2023-02-17T03:50:18.698Z,81.07
2023-02-17T03:52:51.268Z,81.37
2023-02-17T03:55:23.759Z,81.76
2023-02-17T03:57:56.308Z,81.92
2023-02-17T04:00:28.979Z,81.62
2023-02-17T04:03:01.548Z,81.05
2023-02-17T04:05:34.075Z,81.10
2023-02-17T04:08:06.616Z,81.67
2023-02-17T04:10:39.097Z,81.40
2023-02-17T04:13:11.645Z,81.62
2023-02-17T04:15:44.622Z,81.84
2023-02-17T04:18:18.484Z,81.37
2023-02-17T04:20:51.720Z,81.68
2023-02-17T04:23:24.658Z,81.86
2023-02-17T04:25:57.317Z,81.46
2023-02-17T04:28:29.938Z,81.75
2023-02-17T04:31:02.501Z,81.33
2023-02-17T04:33:35.511Z,81.20
2023-02-17T04:36:08.614Z,81.64
2023-02-17T04:38:41.321Z,81.25
2023-02-17T04:41:14.736Z,82.06
2023-02-17T04:43:47.333Z,82.26
2023-02-17T04:46:20.009Z,82.14
2023-02-17T04:48:52.483Z,82.29
2023-02-17T04:51:25.013Z,82.18
2023-02-17T04:53:58.018Z,82.23
2023-02-17T04:56:30.566Z,82.13
2023-02-17T04:59:03.062Z,82.66
2023-02-17T05:01:35.578Z,82.22
2023-02-17T05:04:08.172Z,82.40
2023-02-17T05:06:40.734Z,82.27
2023-02-17T05:09:13.271Z,82.69
2023-02-17T05:11:46.064Z,83.09
2023-02-17T05:14:18.656Z,82.25
2023-02-17T05:16:51.211Z,82.89
2023-02-17T05:19:23.756Z,82.99
2023-02-17T05:21:56.402Z,83.61
2023-02-17T05:24:28.897Z,83.25
2023-02-17T05:27:01.416Z,83.49
2023-02-17T05:29:34.179Z,84.33
2023-02-17T05:32:06.907Z,84.44
2023-02-17T05:34:39.581Z,84.60
2023-02-17T05:37:12.109Z,84.73
2023-02-17T05:39:44.672Z,84.89
2023-02-17T05:42:17.232Z,85.31
2023-02-17T05:44:49.833Z,85.48
2023-02-17T05:47:23.628Z,85.91
2023-02-17T05:49:56.139Z,85.16
2023-02-17T05:52:28.675Z,85.42
2023-02-17T05:55:01.203Z,85.55
2023-02-17T05:57:33.775Z,85.01
2023-02-17T06:00:07.392Z,85.13
2023-02-17T06:02:39.980Z,85.49
2023-02-17T06:05:12.610Z,85.53
2023-02-17T06:07:45.290Z,85.22
2023-02-17T06:10:17.875Z,85.11
2023-02-17T06:12:50.446Z,84.88
2023-02-17T06:15:23.443Z,85.34
2023-02-17T06:17:56.391Z,86.07
2023-02-17T06:20:28.977Z,85.50
2023-02-17T06:23:01.594Z,85.74
2023-02-17T06:25:34.068Z,85.73
2023-02-17T06:28:06.774Z,85.83
2023-02-17T06:30:39.320Z,85.86
2023-02-17T06:33:11.960Z,86.28
2023-02-17T06:35:51.334Z,85.36
2023-02-17T06:38:23.872Z,85.56
2023-02-17T06:40:56.440Z,85.62
2023-02-17T06:43:28.994Z,85.42
2023-02-17T06:46:01.634Z,85.34
2023-02-17T06:48:34.905Z,85.58
2023-02-17T06:51:08.607Z,85.25
2023-02-17T06:53:41.303Z,84.80
2023-02-17T06:56:13.798Z,85.08
2023-02-17T06:58:46.408Z,85.21
2023-02-17T07:01:24.331Z,85.25
2023-02-17T07:03:57.203Z,84.81
2023-02-17T07:06:30.061Z,84.87
2023-02-17T07:09:03.392Z,85.01
2023-02-17T07:11:36.151Z,84.39
2023-02-17T07:14:08.698Z,85.07
2023-02-17T07:16:41.354Z,84.03
2023-02-17T07:19:13.915Z,84.40
2023-02-17T07:21:46.475Z,84.52
2023-02-17T07:24:19.021Z,84.72
2023-02-17T07:26:53.702Z,85.18
2023-02-17T07:29:26.847Z,84.18
2023-02-17T07:31:59.458Z,84.41
2023-02-17T07:34:31.956Z,84.53
2023-02-17T07:37:04.549Z,83.95
2023-02-17T07:39:37.062Z,84.43
2023-02-17T07:42:09.841Z,84.40
2023-02-17T07:44:42.376Z,84.24
2023-02-17T07:47:14.938Z,83.80
2023-02-17T07:49:47.396Z,84.09
2023-02-17T07:52:20.009Z,83.59
2023-02-17T07:54:52.583Z,84.23
2023-02-17T07:57:25.566Z,84.28
2023-02-17T07:59:58.107Z,83.28
2023-02-17T08:02:30.661Z,83.72
2023-02-17T08:05:03.320Z,83.45
2023-02-17T08:07:35.907Z,83.29
2023-02-17T08:10:31.770Z,83.70
2023-02-17T08:13:19.508Z,82.92
2023-02-17T08:15:52.057Z,82.92
2023-02-17T08:18:24.621Z,83.75
2023-02-17T08:20:57.163Z,83.85
2023-02-17T08:23:30.508Z,83.32
2023-02-17T08:26:03.112Z,83.20
2023-02-17T08:28:35.622Z,83.42
2023-02-17T08:31:20.546Z,83.28
2023-02-17T08:33:53.877Z,83.21
2023-02-17T08:36:28.516Z,82.91
2023-02-17T08:39:01.460Z,83.02
2023-02-17T08:41:38.275Z,83.08
2023-02-17T08:44:15.988Z,83.09
2023-02-17T08:46:50.814Z,82.97
2023-02-17T08:49:27.056Z,83.11
2023-02-17T08:52:00.780Z,82.28
2023-02-17T08:54:33.738Z,81.93
2023-02-17T08:57:06.275Z,81.90
2023-02-17T08:59:38.821Z,81.74
2023-02-17T09:02:11.435Z,81.28
2023-02-17T09:04:44.403Z,81.32
2023-02-17T09:07:17.210Z,81.32
2023-02-17T09:09:49.828Z,81.17
2023-02-17T09:12:22.375Z,81.13
2023-02-17T09:14:54.890Z,81.10
2023-02-17T09:17:27.582Z,80.27
2023-02-17T09:20:00.157Z,80.45
2023-02-17T09:22:32.756Z,79.22
2023-02-17T09:25:06.010Z,79.13
2023-02-17T09:27:38.643Z,80.38
2023-02-17T09:30:11.981Z,79.34
2023-02-17T09:32:45.303Z,78.33
2023-02-17T09:35:18.847Z,78.15
2023-02-17T09:37:51.378Z,78.54
2023-02-17T09:40:45.743Z,78.21
2023-02-17T09:43:28.698Z,77.71
2023-02-17T09:46:12.489Z,78.22
2023-02-17T09:48:49.738Z,77.07
2023-02-17T09:51:37.844Z,76.60
2023-02-17T09:54:26.510Z,76.96
2023-02-17T09:57:03.017Z,76.33
2023-02-17T10:00:10.539Z,75.82
2023-02-17T10:03:09.855Z,75.93
2023-02-17T10:06:06.146Z,75.67
2023-02-17T10:09:01.757Z,75.45
2023-02-17T10:11:52.676Z,75.51
2023-02-17T10:14:53.980Z,75.38
2023-02-17T10:18:13.080Z,75.35
2023-02-17T10:20:58.122Z,74.64
2023-02-17T10:23:31.315Z,74.24
2023-02-17T10:26:17.871Z,73.78
2023-02-17T10:29:14.540Z,73.46
2023-02-17T10:32:08.243Z,72.59
2023-02-17T10:35:35.932Z,71.73
2023-02-17T10:38:45.267Z,71.16
2023-02-17T10:41:31.213Z,71.51
2023-02-17T10:44:12.346Z,71.73
2023-02-17T10:46:45.414Z,72.40
2023-02-17T10:49:35.889Z,72.50
2023-02-17T10:52:19.102Z,72.52
2023-02-17T10:55:20.956Z,72.78
2023-02-17T10:58:07.093Z,72.67
2023-02-17T11:00:42.895Z,73.08
2023-02-17T11:03:25.602Z,73.07
2023-02-17T11:06:04.762Z,72.74
2023-02-17T11:08:46.712Z,72.56
2023-02-17T11:11:25.787Z,72.41
2023-02-17T11:14:13.523Z,72.10
2023-02-17T11:16:54.241Z,72.84
2023-02-17T11:19:33.957Z,72.70
2023-02-17T11:22:32.933Z,73.56
2023-02-17T11:25:30.152Z,73.20
2023-02-17T11:28:24.116Z,72.81
2023-02-17T11:31:00.200Z,72.41
2023-02-17T11:33:40.596Z,73.28
2023-02-17T11:36:27.946Z,72.51
2023-02-17T11:39:19.298Z,72.65
2023-02-17T11:41:51.924Z,73.43
2023-02-17T11:44:27.783Z,72.86
2023-02-17T11:47:12.958Z,72.17
2023-02-17T11:50:12.873Z,72.36
2023-02-17T11:53:10.791Z,72.04
2023-02-17T11:56:13.182Z,72.24
2023-02-17T11:59:16.652Z,72.49
2023-02-17T12:02:05.004Z,71.92
2023-02-17T12:05:02.450Z,72.44
2023-02-17T12:07:52.692Z,72.26
2023-02-17T12:10:49.774Z,72.07
2023-02-17T12:13:45.583Z,73.07
2023-02-17T12:16:31.481Z,73.63
2023-02-17T12:19:43.858Z,72.98
2023-02-17T12:22:35.641Z,73.33
2023-02-17T12:25:37.309Z,72.91
2023-02-17T12:28:27.769Z,73.11
2023-02-17T12:31:09.977Z,73.27
2023-02-17T12:34:00.625Z,73.36
2023-02-17T12:36:40.317Z,72.78
2023-02-17T12:39:18.680Z,72.46
2023-02-17T12:42:02.081Z,71.46
2023-02-17T12:44:45.045Z,72.05
2023-02-17T12:48:03.889Z,72.03
2023-02-17T12:50:54.790Z,71.20
2023-02-17T12:53:43.975Z,71.89
2023-02-17T12:56:25.651Z,72.55
2023-02-17T12:59:18.799Z,72.76
2023-02-17T13:02:05.866Z,73.23
2023-02-17T13:04:40.489Z,73.52
2023-02-17T13:07:57.008Z,74.06
2023-02-17T13:10:38.285Z,73.38
2023-02-17T13:13:26.722Z,74.20
2023-02-17T13:16:14.812Z,73.44
2023-02-17T13:18:51.778Z,73.49
2023-02-17T13:21:28.665Z,73.71
2023-02-17T13:24:30.534Z,73.96
2023-02-17T13:27:28.719Z,73.71
2023-02-17T13:30:22.607Z,74.21
2023-02-17T13:33:29.326Z,73.93
2023-02-17T13:36:14.223Z,73.91
2023-02-17T13:38:59.765Z,74.45
2023-02-17T13:41:48.890Z,75.12
2023-02-17T13:44:32.144Z,75.21
2023-02-17T13:47:32.679Z,75.60
2023-02-17T13:50:06.565Z,76.35
2023-02-17T13:52:43.528Z,76.04
2023-02-17T13:55:20.605Z,76.26
2023-02-17T13:57:59.243Z,76.17
2023-02-17T14:00:32.301Z,75.81
2023-02-17T14:03:24.707Z,75.82
2023-02-17T14:06:01.107Z,75.91
2023-02-17T14:08:41.059Z,76.47
2023-02-17T14:11:24.946Z,76.30
2023-02-17T14:13:59.478Z,76.60
2023-02-17T14:16:33.454Z,76.00
2023-02-17T14:19:15.234Z,76.62
2023-02-17T14:22:05.437Z,76.71
2023-02-17T14:24:39.140Z,76.36
2023-02-17T14:27:14.067Z,76.63
2023-02-17T14:29:49.640Z,76.58
2023-02-17T14:32:35.387Z,76.22
2023-02-17T14:35:14.002Z,75.89
2023-02-17T14:37:46.842Z,76.78
2023-02-17T14:40:24.606Z,76.57
2023-02-17T14:42:57.131Z,75.77
2023-02-17T14:45:29.742Z,75.61
2023-02-17T14:48:02.344Z,76.05
2023-02-17T14:50:36.963Z,75.74
2023-02-17T14:53:27.910Z,75.82
2023-02-17T14:56:27.756Z,75.02
2023-02-17T14:59:00.466Z,75.64
2023-02-17T15:01:33.048Z,75.55
2023-02-17T15:04:05.675Z,75.89
2023-02-17T15:06:58.535Z,75.22
2023-02-17T15:09:31.829Z,75.74
2023-02-17T15:12:14.884Z,75.90
2023-02-17T15:14:48.571Z,75.85
2023-02-17T15:17:21.237Z,75.58
2023-02-17T15:19:53.777Z,75.68
2023-02-17T15:22:26.399Z,75.53
2023-02-17T15:24:58.959Z,75.29
2023-02-17T15:27:31.525Z,75.53
2023-02-17T15:30:06.727Z,75.39
2023-02-17T15:32:39.838Z,74.84
2023-02-17T15:35:16.854Z,74.54
2023-02-17T15:37:51.203Z,74.38
2023-02-17T15:40:27.471Z,75.62
2023-02-17T15:43:01.939Z,75.73
2023-02-17T15:45:34.571Z,74.99
2023-02-17T15:48:25.050Z,75.28
2023-02-17T15:50:57.656Z,75.93
2023-02-17T15:53:33.036Z,76.34
2023-02-17T15:56:20.592Z,76.04
2023-02-17T15:58:54.408Z,76.25
2023-02-17T16:01:33.578Z,76.09
2023-02-17T16:04:09.730Z,76.17
2023-02-17T16:06:43.293Z,76.48
2023-02-17T16:09:15.894Z,77.01
2023-02-17T16:11:55.008Z,76.41
2023-02-17T16:14:33.875Z,76.37
2023-02-17T16:17:15.653Z,75.86
2023-02-17T16:19:48.282Z,76.11
2023-02-17T16:22:20.872Z,76.70
2023-02-17T16:24:53.468Z,77.38
2023-02-17T16:27:26.598Z,76.69
2023-02-17T16:30:00.934Z,76.53
2023-02-17T16:32:35.069Z,76.57
2023-02-17T16:35:13.310Z,76.64
2023-02-17T16:38:12.099Z,77.27
2023-02-17T16:40:48.973Z,76.98
2023-02-17T16:43:27.597Z,77.68
2023-02-17T16:46:03.392Z,77.17
2023-02-17T16:48:36.550Z,77.83
2023-02-17T16:51:09.109Z,76.31
2023-02-17T16:53:41.717Z,78.14
2023-02-17T16:56:21.121Z,77.79
2023-02-17T16:58:53.699Z,77.23
2023-02-17T17:01:26.266Z,77.29
2023-02-17T17:03:58.786Z,77.21
2023-02-17T17:06:31.492Z,77.71
2023-02-17T17:09:05.546Z,77.76
2023-02-17T17:11:38.098Z,77.27
2023-02-17T17:14:11.393Z,77.56
2023-02-17T17:16:58.380Z,78.38
2023-02-17T17:19:30.948Z,77.99
2023-02-17T17:22:03.448Z,78.21
2023-02-17T17:24:36.127Z,77.96
2023-02-17T17:27:10.880Z,77.71
2023-02-17T17:29:43.440Z,77.84
2023-02-17T17:32:16.064Z,77.61
2023-02-17T17:34:51.970Z,77.51
2023-02-17T17:37:24.657Z,77.73
2023-02-17T17:39:57.147Z,77.03
2023-02-17T17:42:29.663Z,77.65
2023-02-17T17:45:02.155Z,77.81
2023-02-17T17:47:34.739Z,78.36
2023-02-17T17:50:13.469Z,77.60
2023-02-17T17:52:46.819Z,77.56
2023-02-17T17:55:19.445Z,78.18
2023-02-17T17:57:53.556Z,77.78
2023-02-17T18:00:26.335Z,77.63
2023-02-17T18:02:58.902Z,78.56
2023-02-17T18:05:31.422Z,78.25
2023-02-17T18:08:06.756Z,78.68
2023-02-17T18:10:41.809Z,78.13
2023-02-17T18:13:16.336Z,77.69
2023-02-17T18:15:49.620Z,77.99
2023-02-17T18:18:23.400Z,77.79
2023-02-17T18:20:57.121Z,78.59
2023-02-17T18:23:29.811Z,77.91
2023-02-17T18:26:02.407Z,78.54
2023-02-17T18:28:35.051Z,78.88
2023-02-17T18:31:10.755Z,78.67
2023-02-17T18:33:43.805Z,77.99
2023-02-17T18:36:23.114Z,78.60
2023-02-17T18:38:55.687Z,78.85
2023-02-17T18:41:31.433Z,78.76
2023-02-17T18:44:05.736Z,79.08
2023-02-17T18:46:39.083Z,79.29
2023-02-17T18:49:11.706Z,79.31
2023-02-17T18:51:44.286Z,78.64
2023-02-17T18:54:16.998Z,79.21
2023-02-17T18:56:49.537Z,78.75
2023-02-17T18:59:22.078Z,79.05
2023-02-17T19:01:54.603Z,79.70
2023-02-17T19:04:27.151Z,79.60
2023-02-17T19:07:04.041Z,80.37
2023-02-17T19:09:44.733Z,79.64
2023-02-17T19:12:18.171Z,80.10
2023-02-17T19:14:55.520Z,79.55
2023-02-17T19:17:28.025Z,80.04
2023-02-17T19:20:00.744Z,79.73
2023-02-17T19:22:37.810Z,79.69
2023-02-17T19:25:10.992Z,78.90
2023-02-17T19:27:43.851Z,80.07
2023-02-17T19:30:16.477Z,79.75
2023-02-17T19:32:49.081Z,79.84
2023-02-17T19:35:21.565Z,79.99
2023-02-17T19:37:54.118Z,80.64
2023-02-17T19:40:26.618Z,80.25
2023-02-17T19:42:59.111Z,80.23
2023-02-17T19:45:32.290Z,80.53
2023-02-17T19:48:05.203Z,80.76
2023-02-17T19:50:39.074Z,80.47
2023-02-17T19:53:11.834Z,80.50
2023-02-17T19:55:44.398Z,80.45
2023-02-17T19:58:17.557Z,80.73
2023-02-17T20:00:50.017Z,80.68
2023-02-17T20:03:22.560Z,80.96
2023-02-17T20:05:55.173Z,80.38
2023-02-17T20:08:27.713Z,80.81
2023-02-17T20:11:04.155Z,80.50
2023-02-17T20:13:45.752Z,80.20
2023-02-17T20:16:19.387Z,80.96
2023-02-17T20:18:52.197Z,80.97
2023-02-17T20:21:29.875Z,80.91
2023-02-17T20:24:02.620Z,80.49
2023-02-17T20:26:41.365Z,81.02
2023-02-17T20:29:14.949Z,80.43
2023-02-17T20:31:47.671Z,80.84
2023-02-17T20:34:31.357Z,80.31
2023-02-17T20:37:04.354Z,80.19
2023-02-17T20:39:39.000Z,80.83
2023-02-17T20:42:11.544Z,80.92
2023-02-17T20:44:45.752Z,80.65
2023-02-17T20:47:18.344Z,80.42
2023-02-17T20:49:51.365Z,81.01
2023-02-17T20:52:23.948Z,80.61
2023-02-17T20:54:56.489Z,80.24
2023-02-17T20:57:29.065Z,80.16
2023-02-17T21:00:01.739Z,80.17
2023-02-17T21:02:34.600Z,80.11
2023-02-17T21:05:07.538Z,80.67
2023-02-17T21:07:40.381Z,80.96
2023-02-17T21:10:21.217Z,80.44
2023-02-17T21:12:54.240Z,80.54
2023-02-17T21:15:27.397Z,81.50
2023-02-17T21:17:59.989Z,80.92
2023-02-17T21:20:33.076Z,80.84
2023-02-17T21:23:05.820Z,81.63
2023-02-17T21:25:38.438Z,80.95
2023-02-17T21:28:11.007Z,80.64
2023-02-17T21:30:47.455Z,80.76
2023-02-17T21:33:20.004Z,80.90
2023-02-17T21:35:54.221Z,80.43
2023-02-17T21:38:26.774Z,80.52
2023-02-17T21:41:15.909Z,80.24
2023-02-17T21:44:07.407Z,80.81
2023-02-17T21:46:42.079Z,80.83
2023-02-17T21:49:14.939Z,80.75
2023-02-17T21:51:48.625Z,80.56
2023-02-17T21:54:21.111Z,80.32
2023-02-17T21:56:53.648Z,80.29
2023-02-17T21:59:26.207Z,80.92
2023-02-17T22:01:58.820Z,80.48
2023-02-17T22:04:31.330Z,81.02
2023-02-17T22:07:03.858Z,80.63
2023-02-17T22:09:36.472Z,81.24
2023-02-17T22:12:09.082Z,81.78
2023-02-17T22:14:41.639Z,80.93
2023-02-17T22:17:14.124Z,81.18
2023-02-17T22:19:46.974Z,80.93
2023-02-17T22:22:19.508Z,81.52
2023-02-17T22:24:52.872Z,81.24
2023-02-17T22:27:25.488Z,80.90
2023-02-17T22:29:58.119Z,80.49
2023-02-17T22:32:30.873Z,80.71
2023-02-17T22:35:05.308Z,80.55
2023-02-17T22:37:38.140Z,81.94
2023-02-17T22:40:11.062Z,81.32
2023-02-17T22:42:43.573Z,81.26
2023-02-17T22:45:16.260Z,81.46
2023-02-17T22:47:48.791Z,81.15
2023-02-17T22:50:21.284Z,81.38
2023-02-17T22:52:53.809Z,81.48
2023-02-17T22:55:26.282Z,81.93
2023-02-17T22:57:59.119Z,81.46
2023-02-17T23:00:31.632Z,81.70
2023-02-17T23:03:04.207Z,81.79
2023-02-17T23:05:36.763Z,82.04
2023-02-17T23:08:10.875Z,82.10
2023-02-17T23:10:44.105Z,82.66
2023-02-17T23:13:17.706Z,81.80
2023-02-17T23:15:50.537Z,82.52
2023-02-17T23:18:23.565Z,82.22
2023-02-17T23:20:56.138Z,81.61
2023-02-17T23:23:28.606Z,82.57
2023-02-17T23:26:01.249Z,81.74
2023-02-17T23:28:33.987Z,82.38
2023-02-17T23:31:11.371Z,82.04
2023-02-17T23:33:43.905Z,82.40
2023-02-17T23:36:16.813Z,82.31
2023-02-17T23:38:49.394Z,81.81
2023-02-17T23:41:22.010Z,82.30
2023-02-17T23:43:54.549Z,81.71
2023-02-17T23:46:29.110Z,81.81
2023-02-17T23:49:01.826Z,82.18
2023-02-17T23:51:34.490Z,82.55
2023-02-17T23:54:07.070Z,81.52
2023-02-17T23:56:40.180Z,82.24
2023-02-17T23:59:14.374Z,82.29
